createdAt,value
2022-08-25T00:00:13.223Z,6.18
2022-08-25T00:02:40.308Z,7.07
2022-08-25T00:05:07.759Z,7.35
2022-08-25T00:07:36.365Z,7.00
2022-08-25T00:10:04.524Z,7.38
2022-08-25T00:12:31.190Z,8.20
2022-08-25T00:14:58.687Z,8.55
2022-08-25T00:17:25.510Z,7.97
2022-08-25T00:19:52.160Z,7.80
2022-08-25T00:22:18.777Z,8.25
2022-08-25T00:24:45.718Z,8.32
2022-08-25T00:27:12.601Z,7.72
2022-08-25T00:29:39.658Z,8.07
2022-08-25T00:32:06.795Z,8.65
2022-08-25T00:34:36.055Z,9.18
2022-08-25T00:37:07.202Z,7.70
2022-08-25T00:39:33.911Z,8.63
2022-08-25T00:42:00.875Z,7.97
2022-08-25T00:44:31.778Z,7.25
2022-08-25T00:47:00.933Z,8.15
2022-08-25T00:49:41.599Z,9.48
2022-08-25T00:52:13.547Z,7.38
2022-08-25T00:54:56.128Z,7.22
2022-08-25T00:57:34.317Z,8.95
2022-08-25T01:00:04.255Z,8.98
2022-08-25T01:02:30.997Z,8.48
2022-08-25T01:04:58.760Z,8.50
2022-08-25T01:07:25.628Z,8.95
2022-08-25T01:09:53.311Z,8.00
2022-08-25T01:12:20.602Z,8.55
2022-08-25T01:14:49.902Z,9.35
2022-08-25T01:17:16.925Z,8.98
2022-08-25T01:19:43.936Z,8.95
2022-08-25T01:22:11.970Z,10.35
2022-08-25T01:24:42.503Z,9.02
2022-08-25T01:27:10.127Z,9.20
2022-08-25T01:29:38.099Z,9.60
2022-08-25T01:32:08.481Z,8.32
2022-08-25T01:34:38.602Z,8.27
2022-08-25T01:37:05.375Z,8.70
2022-08-25T01:39:38.950Z,8.55
2022-08-25T01:42:20.001Z,8.18
2022-08-25T01:44:48.106Z,8.52
2022-08-25T01:47:15.978Z,9.20
2022-08-25T01:49:43.031Z,7.70
2022-08-25T01:52:27.643Z,8.93
2022-08-25T01:54:54.331Z,9.35
2022-08-25T01:57:22.256Z,9.77
2022-08-25T01:59:49.197Z,8.68
2022-08-25T02:02:15.905Z,8.60
2022-08-25T02:04:45.199Z,8.77
2022-08-25T02:07:11.899Z,8.98
2022-08-25T02:09:39.162Z,9.60
2022-08-25T02:12:06.489Z,9.02
2022-08-25T02:14:33.231Z,8.98
2022-08-25T02:16:59.885Z,8.55
2022-08-25T02:19:26.650Z,8.82
2022-08-25T02:21:53.773Z,9.40
2022-08-25T02:24:20.819Z,8.43
2022-08-25T02:26:47.851Z,7.78
2022-08-25T02:29:15.312Z,8.90
2022-08-25T02:31:42.355Z,8.43
2022-08-25T02:34:10.099Z,8.70
2022-08-25T02:36:38.023Z,8.80
2022-08-25T02:39:07.411Z,8.80
2022-08-25T02:41:34.937Z,8.38
2022-08-25T02:44:03.839Z,8.70
2022-08-25T02:46:30.960Z,8.32
2022-08-25T02:48:57.879Z,8.00
2022-08-25T02:51:25.674Z,8.52
2022-08-25T02:53:52.407Z,8.35
2022-08-25T02:56:20.418Z,7.55
2022-08-25T02:58:47.660Z,7.72
2022-08-25T03:01:15.222Z,7.75
2022-08-25T03:03:44.336Z,7.75
2022-08-25T03:06:15.188Z,7.65
2022-08-25T03:08:42.955Z,7.43
2022-08-25T03:11:09.996Z,7.53
2022-08-25T03:13:37.317Z,7.70
2022-08-25T03:16:05.501Z,7.10
2022-08-25T03:18:38.532Z,7.53
2022-08-25T03:21:05.925Z,7.32
2022-08-25T03:23:32.831Z,7.45
2022-08-25T03:26:18.089Z,7.65
2022-08-25T03:28:44.800Z,7.22
2022-08-25T03:31:12.533Z,6.60
2022-08-25T03:33:40.045Z,6.78
2022-08-25T03:36:08.483Z,7.00
2022-08-25T03:38:38.089Z,6.93
2022-08-25T03:41:14.727Z,6.90
2022-08-25T03:43:41.531Z,6.65
2022-08-25T03:46:08.265Z,7.05
2022-08-25T03:48:35.039Z,6.78
2022-08-25T03:51:01.700Z,7.57
2022-08-25T03:53:28.395Z,6.60
2022-08-25T03:55:55.036Z,6.10
2022-08-25T03:58:21.778Z,6.85
2022-08-25T04:00:48.435Z,7.05
2022-08-25T04:03:15.179Z,6.70
2022-08-25T04:05:42.847Z,5.93
2022-08-25T04:08:09.554Z,6.32
2022-08-25T04:10:36.968Z,6.55
2022-08-25T04:13:05.411Z,7.50
2022-08-25T04:15:32.168Z,6.40
2022-08-25T04:18:03.244Z,7.57
2022-08-25T04:20:30.143Z,6.18
2022-08-25T04:23:00.491Z,6.60
2022-08-25T04:25:27.583Z,6.85
2022-08-25T04:27:55.232Z,7.03
2022-08-25T04:30:21.921Z,7.00
2022-08-25T04:32:49.171Z,6.43
2022-08-25T04:35:16.231Z,6.15
2022-08-25T04:37:42.927Z,6.82
2022-08-25T04:40:10.413Z,7.18
2022-08-25T04:42:37.127Z,7.20
2022-08-25T04:45:04.310Z,7.63
2022-08-25T04:47:31.234Z,6.78
2022-08-25T04:49:57.900Z,7.53
2022-08-25T04:52:24.583Z,7.35
2022-08-25T04:54:51.303Z,7.07
2022-08-25T04:57:17.942Z,7.15
2022-08-25T04:59:44.587Z,7.40
2022-08-25T05:02:11.224Z,6.75
2022-08-25T05:04:38.352Z,6.82
2022-08-25T05:07:05.551Z,6.90
2022-08-25T05:09:33.016Z,7.55
2022-08-25T05:12:03.830Z,6.95
2022-08-25T05:14:32.043Z,6.60
2022-08-25T05:16:59.070Z,6.25
2022-08-25T05:19:26.536Z,5.97
2022-08-25T05:21:53.818Z,6.22
2022-08-25T05:24:21.978Z,5.63
2022-08-25T05:26:48.850Z,5.75
2022-08-25T05:29:15.921Z,5.47
2022-08-25T05:31:48.244Z,5.33
2022-08-25T05:34:18.721Z,5.22
2022-08-25T05:36:45.621Z,5.82
2022-08-25T05:39:12.693Z,5.20
2022-08-25T05:41:39.375Z,5.65
2022-08-25T05:44:06.316Z,4.90
2022-08-25T05:46:33.040Z,5.30
2022-08-25T05:48:59.890Z,4.95
2022-08-25T05:51:26.705Z,5.53
2022-08-25T05:53:53.859Z,5.60
2022-08-25T05:56:21.106Z,5.57
2022-08-25T05:58:48.383Z,4.88
2022-08-25T06:01:46.166Z,4.80
2022-08-25T06:04:17.566Z,5.72
2022-08-25T06:06:44.210Z,4.53
2022-08-25T06:09:11.119Z,5.00
2022-08-25T06:11:39.692Z,4.47
2022-08-25T06:14:07.152Z,5.13
2022-08-25T06:16:34.011Z,4.80
2022-08-25T06:19:01.151Z,4.47
2022-08-25T06:21:27.904Z,4.32
2022-08-25T06:23:54.551Z,5.32
2022-08-25T06:26:21.693Z,4.30
2022-08-25T06:28:50.773Z,4.40
2022-08-25T06:31:18.795Z,4.95
2022-08-25T06:33:45.632Z,5.40
2022-08-25T06:36:12.835Z,4.85
2022-08-25T06:38:39.807Z,5.05
2022-08-25T06:41:08.707Z,5.18
2022-08-25T06:43:37.249Z,4.78
2022-08-25T06:46:15.679Z,4.65
2022-08-25T06:48:42.756Z,5.05
2022-08-25T06:51:14.118Z,5.68
2022-08-25T06:53:41.679Z,5.18
2022-08-25T06:56:08.889Z,4.68
2022-08-25T06:58:36.236Z,4.93
2022-08-25T07:01:23.344Z,4.68
2022-08-25T07:03:59.558Z,5.50
2022-08-25T07:06:28.887Z,4.80
2022-08-25T07:08:55.673Z,4.75
2022-08-25T07:11:22.529Z,5.00
2022-08-25T07:13:50.357Z,4.85
2022-08-25T07:16:18.859Z,4.55
2022-08-25T07:18:47.487Z,4.57
2022-08-25T07:21:14.695Z,4.43
2022-08-25T07:23:42.432Z,3.97
2022-08-25T07:26:36.881Z,4.47
2022-08-25T07:29:09.426Z,3.63
2022-08-25T07:31:36.183Z,3.38
2022-08-25T07:34:23.380Z,3.95
2022-08-25T07:36:50.045Z,3.40
2022-08-25T07:39:17.549Z,3.53
2022-08-25T07:41:52.223Z,3.10
2022-08-25T07:44:20.749Z,3.42
2022-08-25T07:46:48.329Z,2.83
2022-08-25T07:49:17.639Z,3.70
2022-08-25T07:52:04.995Z,3.20
2022-08-25T07:54:38.043Z,3.35
2022-08-25T07:57:07.710Z,3.40
2022-08-25T07:59:39.434Z,3.30
2022-08-25T08:02:17.888Z,3.10
2022-08-25T08:04:48.506Z,3.38
2022-08-25T08:07:19.859Z,3.30
2022-08-25T08:09:48.716Z,3.17
2022-08-25T08:12:19.814Z,3.30
2022-08-25T08:14:46.590Z,4.15
2022-08-25T08:17:13.859Z,3.25
2022-08-25T08:19:44.873Z,3.00
2022-08-25T08:22:15.001Z,3.50
2022-08-25T08:24:56.163Z,3.30
2022-08-25T08:27:23.529Z,3.60
2022-08-25T08:29:50.249Z,3.30
2022-08-25T08:32:17.906Z,2.83
2022-08-25T08:34:46.980Z,3.33
2022-08-25T08:37:18.393Z,3.50
2022-08-25T08:39:47.039Z,3.17
2022-08-25T08:42:37.181Z,2.72
2022-08-25T08:45:35.607Z,2.92
2022-08-25T08:48:19.616Z,3.13
2022-08-25T08:51:10.626Z,3.58
2022-08-25T08:53:52.500Z,3.20
2022-08-25T08:56:30.768Z,3.47
2022-08-25T08:59:09.480Z,3.45
2022-08-25T09:02:00.297Z,3.30
2022-08-25T09:04:39.012Z,4.03
2022-08-25T09:07:13.178Z,3.72
2022-08-25T09:09:42.499Z,3.45
2022-08-25T09:12:24.793Z,3.03
2022-08-25T09:15:47.537Z,3.00
2022-08-25T09:18:51.073Z,3.33
2022-08-25T09:21:39.421Z,3.53
2022-08-25T09:24:19.017Z,3.83
2022-08-25T09:26:59.411Z,3.25
2022-08-25T09:29:38.530Z,2.90
2022-08-25T09:32:07.391Z,3.20
2022-08-25T09:34:35.856Z,3.53
2022-08-25T09:37:02.959Z,2.92
2022-08-25T09:39:29.617Z,2.80
2022-08-25T09:42:00.313Z,2.85
2022-08-25T09:44:26.971Z,3.30
2022-08-25T09:47:13.407Z,3.20
2022-08-25T09:49:43.364Z,2.95
2022-08-25T09:52:28.728Z,3.38
2022-08-25T09:54:56.775Z,3.17
2022-08-25T09:57:43.889Z,3.53
2022-08-25T10:00:16.198Z,3.20
2022-08-25T10:02:45.806Z,2.72
2022-08-25T10:05:23.715Z,3.40
2022-08-25T10:07:58.661Z,3.13
2022-08-25T10:10:37.758Z,2.83
2022-08-25T10:13:22.658Z,2.63
2022-08-25T10:16:19.978Z,3.20
2022-08-25T10:19:10.157Z,2.78
2022-08-25T10:21:39.705Z,2.60
2022-08-25T10:24:07.471Z,3.10
2022-08-25T10:26:51.002Z,2.83
2022-08-25T10:30:12.435Z,3.53
2022-08-25T10:32:45.002Z,2.92
2022-08-25T10:35:28.782Z,2.88
2022-08-25T10:38:10.615Z,2.40
2022-08-25T10:40:51.158Z,2.85
2022-08-25T10:43:23.718Z,2.30
2022-08-25T10:46:06.565Z,2.72
2022-08-25T10:48:49.666Z,2.75
2022-08-25T10:51:25.522Z,3.05
2022-08-25T10:53:57.211Z,2.90
2022-08-25T10:56:34.044Z,2.67
2022-08-25T10:59:41.395Z,2.40
2022-08-25T11:02:29.347Z,2.80
2022-08-25T11:05:16.311Z,2.95
2022-08-25T11:07:58.683Z,2.42
2022-08-25T11:10:58.623Z,2.30
2022-08-25T11:13:38.546Z,2.38
2022-08-25T11:16:18.968Z,2.50
2022-08-25T11:18:55.921Z,2.75
2022-08-25T11:21:31.802Z,2.35
2022-08-25T11:24:27.157Z,2.57
2022-08-25T11:26:57.016Z,2.65
2022-08-25T11:29:32.675Z,2.20
2022-08-25T11:32:01.898Z,2.83
2022-08-25T11:34:33.046Z,2.45
2022-08-25T11:37:11.194Z,2.60
2022-08-25T11:39:56.899Z,2.75
2022-08-25T11:42:45.447Z,2.40
2022-08-25T11:45:45.759Z,2.78
2022-08-25T11:48:47.171Z,2.67
2022-08-25T11:51:42.526Z,3.50
2022-08-25T11:54:24.843Z,2.67
2022-08-25T11:56:58.799Z,2.90
2022-08-25T12:00:01.568Z,2.90
2022-08-25T12:02:36.412Z,2.80
2022-08-25T12:05:25.840Z,2.60
2022-08-25T12:08:12.477Z,2.42
2022-08-25T12:11:11.157Z,2.80
2022-08-25T12:13:41.743Z,2.80
2022-08-25T12:16:37.309Z,2.70
2022-08-25T12:19:30.619Z,3.10
2022-08-25T12:22:19.167Z,2.55
2022-08-25T12:25:08.667Z,2.85
2022-08-25T12:28:06.854Z,2.90
2022-08-25T12:30:53.693Z,2.60
2022-08-25T12:33:43.055Z,2.27
2022-08-25T12:36:25.780Z,2.13
2022-08-25T12:38:53.856Z,2.45
2022-08-25T12:41:24.324Z,2.50
2022-08-25T12:43:54.346Z,2.60
2022-08-25T12:46:25.721Z,2.57
2022-08-25T12:48:56.006Z,2.33
2022-08-25T12:51:32.718Z,2.38
2022-08-25T12:54:34.363Z,3.08
2022-08-25T12:57:07.202Z,2.20
2022-08-25T12:59:39.390Z,2.77
2022-08-25T13:02:24.701Z,2.50
2022-08-25T13:05:22.667Z,2.42
2022-08-25T13:08:20.072Z,2.63
2022-08-25T13:10:58.163Z,2.30
2022-08-25T13:13:45.442Z,2.40
2022-08-25T13:16:29.085Z,2.70
2022-08-25T13:18:59.415Z,2.35
2022-08-25T13:21:43.169Z,2.47
2022-08-25T13:24:19.218Z,2.45
2022-08-25T13:26:50.119Z,2.53
2022-08-25T13:29:21.779Z,2.17
2022-08-25T13:31:54.149Z,2.28
2022-08-25T13:34:34.432Z,2.20
2022-08-25T13:37:29.627Z,2.60
2022-08-25T13:40:24.805Z,2.93
2022-08-25T13:43:05.843Z,2.30
2022-08-25T13:45:41.580Z,2.58
2022-08-25T13:48:10.918Z,2.38
2022-08-25T13:50:51.904Z,2.58
2022-08-25T13:53:30.488Z,2.73
2022-08-25T13:56:00.455Z,2.50
2022-08-25T13:58:44.545Z,2.63
2022-08-25T14:01:49.045Z,2.42
2022-08-25T14:04:33.172Z,2.75
2022-08-25T14:07:12.636Z,2.60
2022-08-25T14:09:49.464Z,2.75
2022-08-25T14:12:36.726Z,2.45
2022-08-25T14:15:19.912Z,2.40
2022-08-25T14:18:06.042Z,2.60
2022-08-25T14:20:34.760Z,2.47
2022-08-25T14:23:16.280Z,2.30
2022-08-25T14:25:46.628Z,2.50
2022-08-25T14:28:18.108Z,2.30
2022-08-25T14:30:55.591Z,2.78
2022-08-25T14:33:28.137Z,2.20
2022-08-25T14:35:57.696Z,2.53
2022-08-25T14:38:25.665Z,2.17
2022-08-25T14:40:53.465Z,2.63
2022-08-25T14:43:23.757Z,2.50
2022-08-25T14:45:51.886Z,2.77
2022-08-25T14:48:29.439Z,2.58
2022-08-25T14:50:59.616Z,2.40
2022-08-25T14:53:27.664Z,2.75
2022-08-25T14:55:58.997Z,2.50
2022-08-25T14:58:26.727Z,2.80
2022-08-25T15:00:53.864Z,2.80
2022-08-25T15:03:47.765Z,2.38
2022-08-25T15:06:17.022Z,2.65
2022-08-25T15:09:03.184Z,2.55
2022-08-25T15:11:31.079Z,2.37
2022-08-25T15:14:01.231Z,2.58
2022-08-25T15:16:35.483Z,3.00
2022-08-25T15:19:07.791Z,2.83
2022-08-25T15:21:35.981Z,2.25
2022-08-25T15:24:07.313Z,2.30
2022-08-25T15:29:20.809Z,2.83
2022-08-25T15:31:47.853Z,2.00
2022-08-25T15:34:14.609Z,2.55
2022-08-25T15:36:41.882Z,2.47
2022-08-25T15:39:09.991Z,2.20
2022-08-25T15:41:37.767Z,2.20
2022-08-25T15:44:06.225Z,2.53
2022-08-25T15:46:36.582Z,2.30
2022-08-25T15:49:05.453Z,2.70
2022-08-25T15:51:34.923Z,1.88
2022-08-25T15:54:01.841Z,2.13
2022-08-25T15:56:28.590Z,2.13
2022-08-25T15:58:55.529Z,2.63
2022-08-25T16:01:25.267Z,2.70
2022-08-25T16:03:52.466Z,2.40
2022-08-25T16:06:19.345Z,2.83
2022-08-25T16:08:46.162Z,2.10
2022-08-25T16:11:24.617Z,2.53
2022-08-25T16:13:53.009Z,2.50
2022-08-25T16:16:22.232Z,2.80
2022-08-25T16:18:49.541Z,2.75
2022-08-25T16:21:19.715Z,2.90
2022-08-25T16:23:47.142Z,2.67
2022-08-25T16:26:16.395Z,2.60
2022-08-25T16:28:44.810Z,2.88
2022-08-25T16:31:14.347Z,3.05
2022-08-25T16:36:24.537Z,2.50
2022-08-25T16:38:54.840Z,2.70
2022-08-25T16:41:33.784Z,2.80
2022-08-25T16:44:02.812Z,2.97
2022-08-25T16:46:31.074Z,3.22
2022-08-25T16:49:01.721Z,3.28
2022-08-25T16:51:29.814Z,3.00
2022-08-25T16:54:22.145Z,2.67
2022-08-25T16:56:53.671Z,2.92
2022-08-25T16:59:23.364Z,2.78
2022-08-25T17:01:51.044Z,2.55
2022-08-25T17:04:18.244Z,3.20
2022-08-25T17:06:51.748Z,3.03
2022-08-25T17:09:23.836Z,2.80
2022-08-25T17:11:54.377Z,2.95
2022-08-25T17:14:22.007Z,2.58
2022-08-25T17:16:50.995Z,2.40
2022-08-25T17:19:18.543Z,2.90
2022-08-25T17:21:48.429Z,3.00
2022-08-25T17:24:17.285Z,2.80
2022-08-25T17:26:51.819Z,2.67
2022-08-25T17:29:18.969Z,2.60
2022-08-25T17:31:48.327Z,3.00
2022-08-25T17:34:16.320Z,3.30
2022-08-25T17:36:45.172Z,3.42
2022-08-25T17:39:14.071Z,3.75
2022-08-25T17:41:42.903Z,4.00
2022-08-25T17:44:09.550Z,4.03
2022-08-25T17:46:36.516Z,4.47
2022-08-25T17:49:04.228Z,4.60
2022-08-25T17:51:32.208Z,4.22
2022-08-25T17:53:58.948Z,4.43
2022-08-25T17:56:27.552Z,4.28
2022-08-25T17:58:55.695Z,4.72
2022-08-25T18:01:28.983Z,4.60
2022-08-25T18:03:57.295Z,5.43
2022-08-25T18:06:24.710Z,5.87
2022-08-25T18:08:56.287Z,6.30
2022-08-25T18:11:25.952Z,5.90
2022-08-25T18:13:54.152Z,5.47
2022-08-25T18:16:21.813Z,6.50
2022-08-25T18:18:48.704Z,6.10
2022-08-25T18:21:17.930Z,5.70
2022-08-25T18:23:45.706Z,7.68
2022-08-25T18:26:15.241Z,8.43
2022-08-25T18:28:43.711Z,7.50
2022-08-25T18:31:12.075Z,7.40
2022-08-25T18:33:41.999Z,6.93
2022-08-25T18:36:09.752Z,7.13
2022-08-25T18:38:58.233Z,8.02
2022-08-25T18:41:26.667Z,9.85
2022-08-25T18:43:53.737Z,8.87
2022-08-25T18:46:22.510Z,7.75
2022-08-25T18:48:52.829Z,9.02
2022-08-25T18:51:23.239Z,9.35
2022-08-25T18:53:51.178Z,10.05
2022-08-25T18:56:22.364Z,9.03
2022-08-25T18:58:49.026Z,8.88
2022-08-25T19:01:17.330Z,10.50
2022-08-25T19:03:45.206Z,11.70
2022-08-25T19:06:11.954Z,11.98
2022-08-25T19:08:41.637Z,11.00
2022-08-25T19:11:09.764Z,14.65
2022-08-25T19:13:36.990Z,15.95
2022-08-25T19:16:20.402Z,17.02
2022-08-25T19:18:48.593Z,17.65
2022-08-25T19:21:15.567Z,15.60
2022-08-25T19:23:42.231Z,21.83
2022-08-25T19:26:13.961Z,24.98
2022-08-25T19:28:48.893Z,24.23
2022-08-25T19:31:20.607Z,26.55
2022-08-25T19:33:50.132Z,24.55
2022-08-25T19:36:22.906Z,22.75
2022-08-25T19:38:51.783Z,30.48
2022-08-25T19:41:19.828Z,29.60
2022-08-25T19:43:56.449Z,28.13
2022-08-25T19:46:32.950Z,31.85
2022-08-25T19:49:07.932Z,31.17
2022-08-25T19:51:37.263Z,28.00
2022-08-25T19:54:04.901Z,30.08
2022-08-25T19:56:35.000Z,30.00
2022-08-25T19:59:03.645Z,30.48
2022-08-25T20:01:30.423Z,27.95
2022-08-25T20:03:57.186Z,28.35
2022-08-25T20:06:24.284Z,29.38
2022-08-25T20:08:58.926Z,28.80
2022-08-25T20:11:28.927Z,31.67
2022-08-25T20:13:59.282Z,29.38
2022-08-25T20:16:29.845Z,27.67
2022-08-25T20:18:56.581Z,27.48
2022-08-25T20:21:24.115Z,26.58
2022-08-25T20:24:09.231Z,24.90
2022-08-25T20:26:36.323Z,25.25
2022-08-25T20:29:04.985Z,22.90
2022-08-25T20:31:32.344Z,23.52
2022-08-25T20:34:02.843Z,24.10
2022-08-25T20:36:31.275Z,22.05
2022-08-25T20:38:59.219Z,21.38
2022-08-25T20:41:26.110Z,21.00
2022-08-25T20:43:52.932Z,20.23
2022-08-25T20:46:19.695Z,20.98
2022-08-25T20:48:47.090Z,19.90
2022-08-25T20:51:15.846Z,19.88
2022-08-25T20:53:45.472Z,20.08
2022-08-25T20:56:15.081Z,17.35
2022-08-25T20:58:42.967Z,18.52
2022-08-25T21:01:23.176Z,16.83
2022-08-25T21:03:50.667Z,16.58
2022-08-25T21:06:17.758Z,15.60
2022-08-25T21:08:45.228Z,15.98
2022-08-25T21:11:18.057Z,16.13
2022-08-25T21:13:45.796Z,17.30
2022-08-25T21:16:12.727Z,16.33
2022-08-25T21:18:42.667Z,14.20
2022-08-25T21:21:16.482Z,13.38
2022-08-25T21:23:45.630Z,16.38
2022-08-25T21:26:17.727Z,16.58
2022-08-25T21:28:47.704Z,12.73
2022-08-25T21:31:15.307Z,16.02
2022-08-25T21:33:43.155Z,13.60
2022-08-25T21:36:11.644Z,13.43
2022-08-25T21:38:39.842Z,12.77
2022-08-25T21:41:09.898Z,13.98
2022-08-25T21:43:38.087Z,11.55
2022-08-25T21:46:09.573Z,14.52
2022-08-25T21:48:36.463Z,15.23
2022-08-25T21:51:09.151Z,14.70
2022-08-25T21:53:36.975Z,13.85
2022-08-25T21:56:09.556Z,13.25
2022-08-25T21:58:37.312Z,12.13
2022-08-25T22:01:11.180Z,9.98
2022-08-25T22:03:40.902Z,10.55
2022-08-25T22:06:08.038Z,10.45
2022-08-25T22:08:37.918Z,9.10
2022-08-25T22:11:06.219Z,9.10
2022-08-25T22:13:35.283Z,12.25
2022-08-25T22:16:03.056Z,8.45
2022-08-25T22:18:29.846Z,10.50
2022-08-25T22:20:57.758Z,10.07
2022-08-25T22:23:28.173Z,8.98
2022-08-25T22:25:55.675Z,10.05
2022-08-25T22:28:23.400Z,9.52
2022-08-25T22:30:50.664Z,9.50
2022-08-25T22:33:17.882Z,7.38
2022-08-25T22:35:44.735Z,8.43
2022-08-25T22:38:12.484Z,7.55
2022-08-25T22:40:40.630Z,6.32
2022-08-25T22:43:08.697Z,6.47
2022-08-25T22:45:37.635Z,6.38
2022-08-25T22:48:05.463Z,6.72
2022-08-25T22:50:36.009Z,5.75
2022-08-25T22:53:02.872Z,5.50
2022-08-25T22:55:30.911Z,4.82
2022-08-25T22:57:57.551Z,5.75
2022-08-25T23:00:25.049Z,5.00
2022-08-25T23:02:53.142Z,4.88
2022-08-25T23:05:20.103Z,4.13
2022-08-25T23:07:47.707Z,4.47
2022-08-25T23:10:14.496Z,5.18
2022-08-25T23:12:44.016Z,4.45
2022-08-25T23:15:12.004Z,3.38
2022-08-25T23:17:38.745Z,3.88
2022-08-25T23:20:27.505Z,3.40
2022-08-25T23:22:54.509Z,4.22
2022-08-25T23:25:21.820Z,3.13
2022-08-25T23:27:48.655Z,3.17
2022-08-25T23:30:18.457Z,3.70
2022-08-25T23:32:45.151Z,3.30
2022-08-25T23:35:14.702Z,3.10
2022-08-25T23:37:41.351Z,2.83
2022-08-25T23:40:11.900Z,2.80
2022-08-25T23:42:45.877Z,2.88
2022-08-25T23:45:15.686Z,2.80
2022-08-25T23:47:42.350Z,2.92
2022-08-25T23:50:09.900Z,3.20
2022-08-25T23:52:36.560Z,3.80
2022-08-25T23:55:03.500Z,3.20
2022-08-25T23:57:31.851Z,3.20
2022-08-25T23:59:58.508Z,3.85
